Time;durP1;ratioP1;P1;durP2;ratioP2;P2;SDS_P1;SDS_P2;PMS_P1;PMS_P2;Temp;Humidity;BMP_temperature;BMP_pressure;BME280_temperature;BME280_humidity;BME280_pressure;Samples;Min_cycle;Max_cycle;Signal;HPM_P1;HPM_P2
2023/08/05 00:01:06;;;;;;;13.07;3.95;;;;;;;;;;5077625;27;20082;-74
2023/08/05 00:03:32;;;;;;;7.65;3.60;;;;;;;;;;5077332;28;20058;-74
2023/08/05 00:05:59;;;;;;;6.22;3.30;;;;;;;;;;5041115;28;20082;-74
2023/08/05 00:08:25;;;;;;;8.82;3.47;;;;;;;;;;5060109;28;20074;-75
2023/08/05 00:10:51;;;;;;;5.45;3.15;;;;;;;;;;5060918;28;20160;-74
2023/08/05 00:13:17;;;;;;;7.32;2.97;;;;;;;;;;5060272;28;20052;-75
2023/08/05 00:15:43;;;;;;;6.72;3.30;;;;;;;;;;5075675;28;20062;-74
2023/08/05 00:18:09;;;;;;;11.50;3.78;;;;;;;;;;5056845;28;20142;-75
2023/08/05 00:20:35;;;;;;;10.25;3.60;;;;;;;;;;5058694;28;20406;-74
2023/08/05 00:23:02;;;;;;;3.67;3.00;;;;;;;;;;5075870;28;20545;-75
2023/08/05 00:25:28;;;;;;;10.10;3.50;;;;;;;;;;5074586;28;20066;-73
2023/08/05 00:27:54;;;;;;;9.63;3.38;;;;;;;;;;5059985;28;20401;-74
2023/08/05 00:30:20;;;;;;;7.22;3.10;;;;;;;;;;5058737;28;20545;-74
2023/08/05 00:32:46;;;;;;;8.63;3.63;;;;;;;;;;5057659;28;20080;-74
2023/08/05 00:35:12;;;;;;;9.63;3.60;;;;;;;;;;5074738;28;21266;-74
2023/08/05 00:37:38;;;;;;;10.35;4.00;;;;;;;;;;5039799;28;20121;-74
2023/08/05 00:40:07;;;;;;;7.18;4.13;;;;;;;;;;5058258;28;20094;-74
2023/08/05 00:42:33;;;;;;;5.15;3.55;;;;;;;;;;5076749;28;20123;-74
2023/08/05 00:44:59;;;;;;;6.43;3.67;;;;;;;;;;5076879;28;20067;-74
2023/08/05 00:47:25;;;;;;;13.52;4.00;;;;;;;;;;5057747;28;20048;-74
2023/08/05 00:49:52;;;;;;;9.70;3.97;;;;;;;;;;5076744;28;20055;-74
2023/08/05 00:52:20;;;;;;;8.73;4.28;;;;;;;;;;5070929;28;20058;-74
2023/08/05 00:54:46;;;;;;;5.97;3.88;;;;;;;;;;5075659;28;20089;-73
2023/08/05 00:57:12;;;;;;;11.38;4.57;;;;;;;;;;5070939;28;20064;-74
2023/08/05 00:59:39;;;;;;;10.88;4.65;;;;;;;;;;5055496;28;20052;-74
2023/08/05 01:02:06;;;;;;;8.20;3.78;;;;;;;;;;5076451;28;20044;-74
2023/08/05 01:04:32;;;;;;;7.68;4.00;;;;;;;;;;5055631;28;20059;-74
2023/08/05 01:06:59;;;;;;;6.28;4.28;;;;;;;;;;5059294;28;20052;-74
2023/08/05 01:09:25;;;;;;;9.45;4.88;;;;;;;;;;5057398;28;20058;-74
2023/08/05 01:11:51;;;;;;;8.55;4.38;;;;;;;;;;5057270;28;20584;-74
2023/08/05 01:14:18;;;;;;;10.52;4.65;;;;;;;;;;5039480;28;20786;-74
2023/08/05 01:16:44;;;;;;;7.18;4.47;;;;;;;;;;5058410;28;20112;-74
2023/08/05 01:19:23;;;;;;;6.53;4.32;;;;;;;;;;5060357;28;20559;-74
2023/08/05 01:22:08;;;;;;;8.90;4.60;;;;;;;;;;5063782;28;20448;-74
2023/08/05 01:24:40;;;;;;;12.30;4.82;;;;;;;;;;5081620;28;20044;-74
2023/08/05 01:27:08;;;;;;;10.40;4.03;;;;;;;;;;5044232;28;20082;-73
2023/08/05 01:29:34;;;;;;;10.93;5.72;;;;;;;;;;5076733;28;20223;-74
2023/08/05 01:32:01;;;;;;;12.20;4.75;;;;;;;;;;5062956;28;20039;-74
2023/08/05 01:34:27;;;;;;;12.23;4.95;;;;;;;;;;5050639;28;20039;-74
2023/08/05 01:36:53;;;;;;;8.80;5.05;;;;;;;;;;5066013;28;20551;-74
2023/08/05 01:39:19;;;;;;;9.15;4.35;;;;;;;;;;5085509;27;20399;-74
2023/08/05 01:41:45;;;;;;;13.45;4.90;;;;;;;;;;5083523;28;20522;-74
2023/08/05 01:44:11;;;;;;;7.05;5.03;;;;;;;;;;5083140;28;20070;-74
2023/08/05 01:46:37;;;;;;;8.18;4.35;;;;;;;;;;5063271;28;20051;-74
2023/08/05 01:49:04;;;;;;;13.07;5.05;;;;;;;;;;5064508;28;20078;-74
2023/08/05 01:51:30;;;;;;;13.10;4.82;;;;;;;;;;5082998;28;20040;-76
2023/08/05 01:53:56;;;;;;;10.45;4.63;;;;;;;;;;5066239;28;20169;-76
2023/08/05 01:56:22;;;;;;;8.52;4.45;;;;;;;;;;5080208;28;20152;-76
2023/08/05 01:58:48;;;;;;;17.13;5.32;;;;;;;;;;5059004;28;20424;-76
2023/08/05 02:01:14;;;;;;;11.52;5.05;;;;;;;;;;5063526;28;20082;-76
2023/08/05 02:03:40;;;;;;;10.45;5.75;;;;;;;;;;5062472;28;20499;-76
2023/08/05 02:06:06;;;;;;;7.75;5.43;;;;;;;;;;5063324;28;20045;-77
2023/08/05 02:08:32;;;;;;;9.35;5.15;;;;;;;;;;5059792;28;20060;-76
2023/08/05 02:10:58;;;;;;;10.60;5.85;;;;;;;;;;5042864;28;20170;-76
2023/08/05 02:13:24;;;;;;;13.00;5.25;;;;;;;;;;5077259;27;20082;-77
2023/08/05 02:15:50;;;;;;;9.95;5.72;;;;;;;;;;5061753;27;20043;-76
2023/08/05 02:18:16;;;;;;;7.13;6.05;;;;;;;;;;5056983;28;20063;-76
2023/08/05 02:20:42;;;;;;;9.13;5.07;;;;;;;;;;5061501;28;20197;-76
2023/08/05 02:23:08;;;;;;;11.63;5.50;;;;;;;;;;5078980;28;20146;-76
2023/08/05 02:25:34;;;;;;;11.43;5.50;;;;;;;;;;5081849;28;20144;-76
2023/08/05 02:28:00;;;;;;;8.85;6.03;;;;;;;;;;5060360;28;20058;-76
2023/08/05 02:30:26;;;;;;;15.52;6.50;;;;;;;;;;5065178;28;20326;-76
2023/08/05 02:32:52;;;;;;;11.52;5.85;;;;;;;;;;5076419;28;20044;-76
2023/08/05 02:35:18;;;;;;;13.35;6.82;;;;;;;;;;5060238;28;20412;-76
2023/08/05 02:37:44;;;;;;;9.23;6.05;;;;;;;;;;5078555;28;20052;-76
2023/08/05 02:40:11;;;;;;;10.40;5.57;;;;;;;;;;5078492;28;20048;-76
2023/08/05 02:42:37;;;;;;;14.32;5.97;;;;;;;;;;5082183;27;20035;-76
2023/08/05 02:45:03;;;;;;;8.90;5.65;;;;;;;;;;5048957;28;20043;-76
2023/08/05 02:47:29;;;;;;;8.25;5.30;;;;;;;;;;5064476;28;20544;-76
2023/08/05 02:49:55;;;;;;;10.15;6.38;;;;;;;;;;5076451;27;20138;-76
2023/08/05 02:52:21;;;;;;;15.52;6.20;;;;;;;;;;5020672;28;20058;-76
2023/08/05 02:54:47;;;;;;;12.43;5.75;;;;;;;;;;5061783;28;20051;-76
2023/08/05 02:57:13;;;;;;;12.68;5.53;;;;;;;;;;5049202;28;20056;-76
2023/08/05 02:59:39;;;;;;;10.23;5.30;;;;;;;;;;5046980;28;20079;-76
2023/08/05 03:02:05;;;;;;;9.18;6.00;;;;;;;;;;5060870;27;20101;-76
2023/08/05 03:04:32;;;;;;;9.00;5.72;;;;;;;;;;5062312;28;22060;-76
2023/08/05 03:06:58;;;;;;;15.10;5.82;;;;;;;;;;5082787;27;20051;-76
2023/08/05 03:09:24;;;;;;;10.18;5.72;;;;;;;;;;5062020;28;20144;-76
2023/08/05 03:11:50;;;;;;;11.32;5.82;;;;;;;;;;5063292;28;20062;-76
2023/08/05 03:14:16;;;;;;;11.35;5.38;;;;;;;;;;5064127;28;20933;-76
2023/08/05 03:16:42;;;;;;;8.57;5.30;;;;;;;;;;5061388;28;20059;-76
2023/08/05 03:19:08;;;;;;;9.48;5.78;;;;;;;;;;5062001;28;20166;-76
2023/08/05 03:21:34;;;;;;;13.63;5.40;;;;;;;;;;5062240;28;20048;-76
2023/08/05 03:24:00;;;;;;;14.73;5.85;;;;;;;;;;5078939;28;20055;-76
2023/08/05 03:26:26;;;;;;;9.10;5.85;;;;;;;;;;5080052;28;20044;-76
2023/08/05 03:28:52;;;;;;;8.05;5.90;;;;;;;;;;5079089;28;20132;-77
2023/08/05 03:31:18;;;;;;;7.88;5.10;;;;;;;;;;5062979;28;20094;-77
2023/08/05 03:33:45;;;;;;;12.13;6.28;;;;;;;;;;5062090;28;20055;-76
2023/08/05 03:36:11;;;;;;;11.10;5.53;;;;;;;;;;5079760;28;21926;-76
2023/08/05 03:38:37;;;;;;;12.75;5.65;;;;;;;;;;5060764;28;20056;-76
2023/08/05 03:41:04;;;;;;;12.35;5.65;;;;;;;;;;5061515;28;20081;-77
2023/08/05 03:43:30;;;;;;;9.20;5.88;;;;;;;;;;5077023;28;20052;-76
2023/08/05 03:45:56;;;;;;;14.18;5.57;;;;;;;;;;5047825;28;20104;-81
2023/08/05 03:48:22;;;;;;;11.75;5.30;;;;;;;;;;5041310;28;20051;-77
2023/08/05 03:50:48;;;;;;;9.13;5.70;;;;;;;;;;5063101;28;20055;-77
2023/08/05 03:53:14;;;;;;;11.57;5.70;;;;;;;;;;5079896;28;20053;-77
2023/08/05 03:55:41;;;;;;;11.60;5.53;;;;;;;;;;5061206;27;20073;-77
2023/08/05 03:58:07;;;;;;;13.02;5.78;;;;;;;;;;5062466;28;20052;-77
2023/08/05 04:00:36;;;;;;;13.82;5.93;;;;;;;;;;5081627;28;20047;-77
2023/08/05 04:03:03;;;;;;;8.85;5.78;;;;;;;;;;5065438;28;21542;-77
2023/08/05 04:05:29;;;;;;;8.95;5.70;;;;;;;;;;5080196;28;20059;-77
2023/08/05 04:07:55;;;;;;;9.65;5.25;;;;;;;;;;5064863;28;20487;-76
2023/08/05 04:10:22;;;;;;;11.70;5.57;;;;;;;;;;5083253;28;20447;-76
2023/08/05 04:12:48;;;;;;;10.18;5.43;;;;;;;;;;5063205;28;20047;-76
2023/08/05 04:15:14;;;;;;;15.82;6.70;;;;;;;;;;5084140;28;20047;-76
2023/08/05 04:17:42;;;;;;;8.70;5.95;;;;;;;;;;5084257;28;20056;-76
2023/08/05 04:20:08;;;;;;;7.63;5.05;;;;;;;;;;5082338;28;20044;-76
2023/08/05 04:22:35;;;;;;;8.95;5.60;;;;;;;;;;5064297;28;20098;-76
2023/08/05 04:25:02;;;;;;;14.27;5.70;;;;;;;;;;5067758;28;20055;-76
2023/08/05 04:27:28;;;;;;;10.30;5.18;;;;;;;;;;5061452;28;20081;-76
2023/08/05 04:29:54;;;;;;;8.82;5.13;;;;;;;;;;5081602;28;20750;-76
2023/08/05 04:32:20;;;;;;;10.20;4.88;;;;;;;;;;5061023;28;20400;-76
2023/08/05 04:34:47;;;;;;;8.25;5.15;;;;;;;;;;5068394;28;20059;-76
2023/08/05 04:37:17;;;;;;;7.10;4.72;;;;;;;;;;5065339;28;20087;-76
2023/08/05 04:39:43;;;;;;;10.65;5.10;;;;;;;;;;5068056;28;20043;-76
2023/08/05 04:42:09;;;;;;;8.80;4.80;;;;;;;;;;5062616;28;20072;-76
2023/08/05 04:44:37;;;;;;;8.70;4.95;;;;;;;;;;5058191;28;20054;-76
2023/08/05 04:47:04;;;;;;;7.95;4.97;;;;;;;;;;5078969;28;20056;-76
2023/08/05 04:49:30;;;;;;;10.68;5.05;;;;;;;;;;5058735;28;20102;-77
2023/08/05 04:51:56;;;;;;;9.20;5.18;;;;;;;;;;5078020;28;20164;-76
2023/08/05 04:54:23;;;;;;;9.15;4.90;;;;;;;;;;5060377;28;20047;-77
2023/08/05 04:56:49;;;;;;;9.52;5.22;;;;;;;;;;5080861;28;20132;-75
2023/08/05 04:59:15;;;;;;;13.80;5.68;;;;;;;;;;5045832;28;20399;-77
2023/08/05 05:01:41;;;;;;;7.70;4.63;;;;;;;;;;5081110;28;20116;-77
2023/08/05 05:04:07;;;;;;;10.68;4.93;;;;;;;;;;5059523;28;20129;-77
2023/08/05 05:06:33;;;;;;;11.02;4.97;;;;;;;;;;5085146;28;20043;-77
2023/08/05 05:08:59;;;;;;;10.10;4.95;;;;;;;;;;5067477;28;20047;-77
2023/08/05 05:11:25;;;;;;;9.35;4.88;;;;;;;;;;5066938;28;20097;-77
2023/08/05 05:13:52;;;;;;;9.60;4.93;;;;;;;;;;5086028;27;20134;-78
2023/08/05 05:16:19;;;;;;;8.88;4.65;;;;;;;;;;5065158;28;20051;-77
2023/08/05 05:18:45;;;;;;;8.13;4.57;;;;;;;;;;5053683;28;20104;-74
2023/08/05 05:21:11;;;;;;;8.70;4.78;;;;;;;;;;5058044;28;20058;-77
2023/08/05 05:23:38;;;;;;;8.77;4.32;;;;;;;;;;5064114;28;20098;-77
2023/08/05 05:26:04;;;;;;;10.25;4.28;;;;;;;;;;5071579;28;20055;-76
2023/08/05 05:28:30;;;;;;;8.95;4.38;;;;;;;;;;5050298;28;20056;-78
2023/08/05 05:30:58;;;;;;;7.97;3.95;;;;;;;;;;5067252;28;20312;-78
2023/08/05 05:33:25;;;;;;;11.18;4.03;;;;;;;;;;5062660;28;20056;-77
2023/08/05 05:35:51;;;;;;;9.27;3.22;;;;;;;;;;5084931;28;20039;-77
2023/08/05 05:38:17;;;;;;;7.88;3.90;;;;;;;;;;5066591;28;20058;-78
2023/08/05 05:40:43;;;;;;;10.45;3.63;;;;;;;;;;5064776;28;20048;-78
2023/08/05 05:43:09;;;;;;;8.75;4.00;;;;;;;;;;5084186;28;20058;-78
2023/08/05 05:45:36;;;;;;;9.20;3.70;;;;;;;;;;5066586;28;20104;-78
2023/08/05 05:48:02;;;;;;;5.22;2.95;;;;;;;;;;5063395;27;20510;-77
2023/08/05 05:50:29;;;;;;;7.22;3.00;;;;;;;;;;5086703;27;20073;-78
2023/08/05 05:52:55;;;;;;;4.75;3.00;;;;;;;;;;5083743;27;20060;-77
2023/08/05 05:55:21;;;;;;;7.10;3.33;;;;;;;;;;5067217;28;20079;-77
2023/08/05 05:57:48;;;;;;;7.63;3.58;;;;;;;;;;5062989;28;20044;-78
2023/08/05 06:00:14;;;;;;;9.30;3.28;;;;;;;;;;5057754;28;20051;-78
2023/08/05 06:02:41;;;;;;;7.07;2.60;;;;;;;;;;5065200;28;20050;-78
2023/08/05 06:05:07;;;;;;;5.65;2.70;;;;;;;;;;5063602;28;20085;-78
2023/08/05 06:07:33;;;;;;;5.85;2.47;;;;;;;;;;5065765;28;20064;-78
2023/08/05 06:09:59;;;;;;;5.72;2.30;;;;;;;;;;5060188;28;20487;-78
2023/08/05 06:12:32;;;;;;;5.55;2.55;;;;;;;;;;5080216;28;20044;-77
2023/08/05 06:14:59;;;;;;;5.13;2.47;;;;;;;;;;5061069;28;20204;-77
2023/08/05 06:17:25;;;;;;;5.05;2.42;;;;;;;;;;5061126;28;20055;-77
2023/08/05 06:19:51;;;;;;;4.50;2.58;;;;;;;;;;5062762;28;20483;-77
2023/08/05 06:22:17;;;;;;;5.43;2.75;;;;;;;;;;5061365;28;20052;-78
2023/08/05 06:24:43;;;;;;;4.88;2.53;;;;;;;;;;5061040;28;20043;-74
2023/08/05 06:27:10;;;;;;;5.20;2.88;;;;;;;;;;5065650;28;20058;-74
2023/08/05 06:29:36;;;;;;;5.95;2.70;;;;;;;;;;5067526;28;20047;-74
2023/08/05 06:32:02;;;;;;;7.18;3.38;;;;;;;;;;5066588;28;20062;-75
2023/08/05 06:34:28;;;;;;;6.43;2.60;;;;;;;;;;5085455;28;20055;-75
2023/08/05 06:36:54;;;;;;;4.97;2.70;;;;;;;;;;5067710;28;20056;-75
2023/08/05 06:39:20;;;;;;;5.13;2.50;;;;;;;;;;5084696;27;20527;-75
2023/08/05 06:41:46;;;;;;;3.83;2.50;;;;;;;;;;5085743;27;20040;-75
2023/08/05 06:44:12;;;;;;;5.20;2.67;;;;;;;;;;5068413;28;20055;-74
2023/08/05 06:46:39;;;;;;;4.50;2.35;;;;;;;;;;5071891;28;20060;-75
2023/08/05 06:49:05;;;;;;;3.05;2.15;;;;;;;;;;5087599;27;20035;-78
2023/08/05 06:51:32;;;;;;;5.65;2.38;;;;;;;;;;5067990;28;20476;-78
2023/08/05 06:53:58;;;;;;;7.47;3.05;;;;;;;;;;5068577;28;20059;-78
2023/08/05 06:56:24;;;;;;;5.03;2.90;;;;;;;;;;5086190;28;20048;-77
2023/08/05 06:58:50;;;;;;;7.65;2.90;;;;;;;;;;5086901;28;20056;-77
2023/08/05 07:01:16;;;;;;;8.10;2.60;;;;;;;;;;5071295;28;20166;-78
2023/08/05 07:03:44;;;;;;;5.97;3.10;;;;;;;;;;5087823;27;20079;-78
2023/08/05 07:06:10;;;;;;;5.72;3.00;;;;;;;;;;5090471;28;20496;-78
2023/08/05 07:08:36;;;;;;;5.72;2.03;;;;;;;;;;5086875;28;20144;-78
2023/08/05 07:11:02;;;;;;;5.45;2.63;;;;;;;;;;5055404;28;20055;-78
2023/08/05 07:13:28;;;;;;;7.05;3.03;;;;;;;;;;5070525;28;20075;-78
2023/08/05 07:16:01;;;;;;;6.90;2.40;;;;;;;;;;5068300;28;20055;-76
2023/08/05 07:18:28;;;;;;;5.93;3.00;;;;;;;;;;5068960;28;20051;-78
2023/08/05 07:20:54;;;;;;;3.05;2.22;;;;;;;;;;5069020;28;20075;-77
2023/08/05 07:23:20;;;;;;;5.68;2.30;;;;;;;;;;5047189;28;20138;-78
2023/08/05 07:25:46;;;;;;;6.97;2.10;;;;;;;;;;5065762;28;20186;-78
2023/08/05 07:28:13;;;;;;;6.72;2.50;;;;;;;;;;5088859;28;20144;-78
2023/08/05 07:30:39;;;;;;;5.53;2.10;;;;;;;;;;5067958;28;20043;-77
2023/08/05 07:33:09;;;;;;;5.20;2.45;;;;;;;;;;5068923;28;20166;-75
2023/08/05 07:35:35;;;;;;;4.80;2.35;;;;;;;;;;5085057;28;21788;-75
2023/08/05 07:38:04;;;;;;;5.50;1.90;;;;;;;;;;5053101;28;20055;-78
2023/08/05 07:40:31;;;;;;;3.60;1.90;;;;;;;;;;5052872;28;20047;-77
2023/08/05 07:42:58;;;;;;;3.55;1.95;;;;;;;;;;5052519;28;20048;-75
2023/08/05 07:45:26;;;;;;;4.20;2.05;;;;;;;;;;5062178;28;20052;-76
2023/08/05 07:47:52;;;;;;;3.63;1.88;;;;;;;;;;5067745;27;20051;-75
2023/08/05 07:50:22;;;;;;;7.78;2.05;;;;;;;;;;5065694;28;20070;-75
2023/08/05 07:52:49;;;;;;;3.30;2.10;;;;;;;;;;5084474;28;20052;-77
2023/08/05 07:55:15;;;;;;;10.85;2.45;;;;;;;;;;5069302;28;20071;-78
2023/08/05 07:57:41;;;;;;;4.00;2.30;;;;;;;;;;5085776;28;20072;-78
2023/08/05 08:00:09;;;;;;;4.80;2.15;;;;;;;;;;5067698;28;20039;-77
2023/08/05 08:02:35;;;;;;;4.90;1.90;;;;;;;;;;5060700;28;20056;-78
2023/08/05 08:05:05;;;;;;;3.03;2.00;;;;;;;;;;5066100;28;20047;-75
2023/08/05 08:07:31;;;;;;;4.72;2.22;;;;;;;;;;5082741;28;21034;-75
2023/08/05 08:09:57;;;;;;;6.22;2.28;;;;;;;;;;5061972;28;20036;-75
2023/08/05 08:12:24;;;;;;;5.90;2.08;;;;;;;;;;5085624;28;20494;-76
2023/08/05 08:14:50;;;;;;;4.80;2.30;;;;;;;;;;5066414;28;20075;-76
2023/08/05 08:17:16;;;;;;;4.20;2.28;;;;;;;;;;5067235;28;20632;-77
2023/08/05 08:19:45;;;;;;;4.68;1.80;;;;;;;;;;5066458;28;20061;-79
2023/08/05 08:22:11;;;;;;;5.63;2.20;;;;;;;;;;5067858;28;20042;-79
2023/08/05 08:24:37;;;;;;;4.45;2.08;;;;;;;;;;5066436;28;20040;-80
2023/08/05 08:27:03;;;;;;;4.15;1.73;;;;;;;;;;5054268;28;20052;-80
2023/08/05 08:29:29;;;;;;;6.97;1.95;;;;;;;;;;5053460;28;20140;-80
2023/08/05 08:31:56;;;;;;;5.95;2.05;;;;;;;;;;5084967;28;20079;-80
2023/08/05 08:34:22;;;;;;;7.50;2.15;;;;;;;;;;5084163;28;20492;-80
2023/08/05 08:36:49;;;;;;;3.05;1.75;;;;;;;;;;5086070;28;20116;-79
2023/08/05 08:39:15;;;;;;;3.85;1.88;;;;;;;;;;5066454;28;20059;-78
2023/08/05 08:41:42;;;;;;;4.30;2.13;;;;;;;;;;5067880;28;20536;-79
2023/08/05 08:44:09;;;;;;;3.65;1.45;;;;;;;;;;5067460;28;20055;-82
2023/08/05 08:46:36;;;;;;;3.55;1.70;;;;;;;;;;5084694;28;20044;-82
2023/08/05 08:49:02;;;;;;;1.88;1.50;;;;;;;;;;5067357;28;20051;-82
2023/08/05 08:51:29;;;;;;;3.40;1.95;;;;;;;;;;5066629;28;20055;-82
2023/08/05 08:53:56;;;;;;;2.17;1.80;;;;;;;;;;5066749;28;20050;-79
2023/08/05 08:56:22;;;;;;;4.20;1.48;;;;;;;;;;5065049;28;20059;-79
2023/08/05 08:58:48;;;;;;;2.45;1.60;;;;;;;;;;5050525;28;20506;-79
2023/08/05 09:01:17;;;;;;;2.38;1.70;;;;;;;;;;5086084;28;20043;-79
2023/08/05 09:03:44;;;;;;;3.05;1.67;;;;;;;;;;5081867;28;20047;-79
2023/08/05 09:06:10;;;;;;;2.40;1.40;;;;;;;;;;5067049;28;20050;-81
2023/08/05 09:08:37;;;;;;;5.30;1.77;;;;;;;;;;5066072;28;20073;-79
2023/08/05 09:11:03;;;;;;;2.15;1.45;;;;;;;;;;5063153;28;21206;-79
2023/08/05 09:13:29;;;;;;;1.92;1.40;;;;;;;;;;5084901;28;20043;-82
2023/08/05 09:15:55;;;;;;;2.63;1.40;;;;;;;;;;5084888;28;20403;-82
2023/08/05 09:18:21;;;;;;;2.08;1.58;;;;;;;;;;5082672;28;22151;-82
2023/08/05 09:20:50;;;;;;;5.00;1.63;;;;;;;;;;5084316;28;20775;-82
2023/08/05 09:23:16;;;;;;;2.92;1.75;;;;;;;;;;5067204;28;20051;-82
2023/08/05 09:25:46;;;;;;;1.70;1.60;;;;;;;;;;5051120;28;20051;-82
2023/08/05 09:28:12;;;;;;;2.72;1.52;;;;;;;;;;5066152;28;20252;-81
2023/08/05 09:30:38;;;;;;;3.08;1.48;;;;;;;;;;5065553;28;21851;-79
2023/08/05 09:33:06;;;;;;;2.05;1.60;;;;;;;;;;5065567;28;20142;-79
2023/08/05 09:35:32;;;;;;;2.65;1.75;;;;;;;;;;5067053;28;20066;-78
2023/08/05 09:38:00;;;;;;;3.65;1.98;;;;;;;;;;5066009;28;20073;-78
2023/08/05 09:40:28;;;;;;;2.65;1.60;;;;;;;;;;5092969;28;20063;-78
2023/08/05 09:43:03;;;;;;;2.67;1.50;;;;;;;;;;5084366;28;20047;-78
2023/08/05 09:45:32;;;;;;;3.67;1.60;;;;;;;;;;5084742;28;20424;-78
2023/08/05 09:48:03;;;;;;;3.40;1.50;;;;;;;;;;5086270;28;20470;-78
2023/08/05 09:50:31;;;;;;;3.38;1.85;;;;;;;;;;5085537;28;20776;-78
2023/08/05 09:52:59;;;;;;;4.22;1.88;;;;;;;;;;5087824;28;20134;-78
2023/08/05 09:55:27;;;;;;;2.58;1.35;;;;;;;;;;5068687;28;20055;-78
2023/08/05 09:57:54;;;;;;;2.47;1.70;;;;;;;;;;5069427;28;20055;-78
2023/08/05 10:00:20;;;;;;;2.78;1.50;;;;;;;;;;5088667;28;20178;-78
2023/08/05 10:02:46;;;;;;;2.53;1.40;;;;;;;;;;5088513;28;20047;-78
2023/08/05 10:05:13;;;;;;;1.40;1.30;;;;;;;;;;5089562;28;20059;-79
2023/08/05 10:07:40;;;;;;;2.08;1.52;;;;;;;;;;5086516;27;20052;-79
2023/08/05 10:10:16;;;;;;;2.28;1.63;;;;;;;;;;5070817;28;20056;-84
2023/08/05 10:12:42;;;;;;;1.85;1.65;;;;;;;;;;5069924;28;20197;-85
2023/08/05 10:15:09;;;;;;;4.32;1.77;;;;;;;;;;5070234;28;20163;-85
2023/08/05 10:17:42;;;;;;;7.15;1.80;;;;;;;;;;5048048;28;20055;-79
2023/08/05 10:20:12;;;;;;;3.33;1.50;;;;;;;;;;5087747;28;20055;-85
2023/08/05 10:22:39;;;;;;;3.55;1.60;;;;;;;;;;5088856;28;20058;-86
2023/08/05 10:25:05;;;;;;;1.98;1.40;;;;;;;;;;5068918;28;20047;-85
2023/08/05 10:27:35;;;;;;;4.63;1.80;;;;;;;;;;5057598;27;20051;-85
2023/08/05 10:30:06;;;;;;;1.88;1.70;;;;;;;;;;5053498;28;20123;-78
2023/08/05 10:32:33;;;;;;;3.10;1.65;;;;;;;;;;5064195;28;20043;-78
2023/08/05 10:35:18;;;;;;;3.33;1.70;;;;;;;;;;5070332;28;20789;-78
2023/08/05 10:37:50;;;;;;;1.77;1.52;;;;;;;;;;5087728;28;20487;-78
2023/08/05 10:40:35;;;;;;;2.35;1.70;;;;;;;;;;5068005;27;20051;-79
2023/08/05 10:43:01;;;;;;;1.33;1.23;;;;;;;;;;5056013;28;20563;-79
2023/08/05 10:45:27;;;;;;;2.13;1.52;;;;;;;;;;5088516;28;20084;-78
2023/08/05 10:47:54;;;;;;;2.15;1.67;;;;;;;;;;5086446;27;20055;-79
2023/08/05 10:50:20;;;;;;;3.00;1.65;;;;;;;;;;5087565;27;20067;-78
2023/08/05 10:52:46;;;;;;;3.35;1.60;;;;;;;;;;5087963;27;20050;-78
2023/08/05 10:55:12;;;;;;;2.38;1.50;;;;;;;;;;5087736;28;20055;-78
2023/08/05 10:57:38;;;;;;;4.35;1.30;;;;;;;;;;5087014;28;20039;-78
2023/08/05 11:00:07;;;;;;;4.75;1.70;;;;;;;;;;5068880;28;20043;-78
2023/08/05 11:02:34;;;;;;;3.90;1.60;;;;;;;;;;5085820;28;20097;-79
2023/08/05 11:05:07;;;;;;;2.53;1.40;;;;;;;;;;5065717;28;20679;-78
2023/08/05 11:07:34;;;;;;;3.33;1.60;;;;;;;;;;5086330;28;20048;-79
2023/08/05 11:10:01;;;;;;;3.28;1.40;;;;;;;;;;5089766;28;20046;-79
2023/08/05 11:12:29;;;;;;;5.40;2.00;;;;;;;;;;5087434;28;20190;-74
2023/08/05 11:14:55;;;;;;;1.75;1.30;;;;;;;;;;5066834;28;20506;-78
2023/08/05 11:17:21;;;;;;;2.08;1.45;;;;;;;;;;5070084;28;21687;-86
2023/08/05 11:20:01;;;;;;;6.32;1.70;;;;;;;;;;5086892;27;20102;-78
2023/08/05 11:22:28;;;;;;;2.53;1.45;;;;;;;;;;5087708;28;20086;-78
2023/08/05 11:25:01;;;;;;;4.15;1.52;;;;;;;;;;5069084;28;20040;-86
2023/08/05 11:27:34;;;;;;;1.95;1.27;;;;;;;;;;5073593;28;20074;-86
2023/08/05 11:30:12;;;;;;;1.73;1.50;;;;;;;;;;5068374;28;20060;-78
2023/08/05 11:32:49;;;;;;;2.03;1.40;;;;;;;;;;5084065;28;20036;-78
2023/08/05 11:35:15;;;;;;;3.63;1.48;;;;;;;;;;5085524;28;20102;-79
2023/08/05 11:37:41;;;;;;;23.75;2.50;;;;;;;;;;5067702;28;20412;-78
2023/08/05 11:40:07;;;;;;;7.35;2.97;;;;;;;;;;5085780;28;20055;-79
2023/08/05 11:42:34;;;;;;;6.65;2.05;;;;;;;;;;5087684;27;20885;-79
2023/08/05 11:45:00;;;;;;;3.35;2.10;;;;;;;;;;5087643;28;20040;-78
2023/08/05 11:47:26;;;;;;;11.98;2.08;;;;;;;;;;5085167;28;20055;-78
2023/08/05 11:49:53;;;;;;;5.07;2.10;;;;;;;;;;5084810;28;20040;-79
2023/08/05 11:52:19;;;;;;;3.83;1.92;;;;;;;;;;5068692;28;20100;-79
2023/08/05 11:54:56;;;;;;;2.63;1.75;;;;;;;;;;5086651;28;20051;-79
2023/08/05 11:57:22;;;;;;;2.83;1.77;;;;;;;;;;5085518;28;20060;-79
2023/08/05 11:59:49;;;;;;;5.65;2.15;;;;;;;;;;5088044;28;20078;-79
2023/08/05 12:02:16;;;;;;;2.50;1.70;;;;;;;;;;5085363;27;20054;-82
2023/08/05 12:04:46;;;;;;;18.38;2.45;;;;;;;;;;5067887;28;20052;-82
2023/08/05 12:07:13;;;;;;;2.80;1.70;;;;;;;;;;5048469;28;20055;-80
2023/08/05 12:09:39;;;;;;;2.70;2.10;;;;;;;;;;5053263;28;20063;-80
2023/08/05 12:12:08;;;;;;;1.95;1.65;;;;;;;;;;5067788;28;20052;-83
2023/08/05 12:14:34;;;;;;;3.95;1.98;;;;;;;;;;5049611;28;20136;-83
2023/08/05 12:17:00;;;;;;;76.50;6.60;;;;;;;;;;5066961;28;20086;-80
2023/08/05 12:19:27;;;;;;;155.77;9.40;;;;;;;;;;5049184;28;20523;-80
2023/08/05 12:21:53;;;;;;;31.35;3.03;;;;;;;;;;5066708;28;20086;-80
2023/08/05 12:24:19;;;;;;;6.97;2.10;;;;;;;;;;5067985;28;20131;-80
2023/08/05 12:26:45;;;;;;;5.07;2.20;;;;;;;;;;5063480;28;20047;-80
2023/08/05 12:29:11;;;;;;;5.13;2.20;;;;;;;;;;5066534;28;20047;-80
2023/08/05 12:31:37;;;;;;;4.78;2.13;;;;;;;;;;5067732;28;20124;-80
2023/08/05 12:34:03;;;;;;;3.88;2.00;;;;;;;;;;5049258;28;20059;-80
2023/08/05 12:36:30;;;;;;;2.00;1.80;;;;;;;;;;5065918;28;20040;-83
2023/08/05 12:38:56;;;;;;;3.03;2.17;;;;;;;;;;5067202;28;20153;-82
2023/08/05 12:41:22;;;;;;;3.83;2.45;;;;;;;;;;5082653;28;20654;-83
2023/08/05 12:43:48;;;;;;;2.75;2.03;;;;;;;;;;5067135;28;20422;-83
2023/08/05 12:46:14;;;;;;;2.88;2.40;;;;;;;;;;5084752;28;20138;-80
2023/08/05 12:48:40;;;;;;;3.38;2.25;;;;;;;;;;5067438;28;20051;-80
2023/08/05 12:51:06;;;;;;;3.00;1.92;;;;;;;;;;5065722;28;22154;-80
2023/08/05 12:53:32;;;;;;;5.55;1.92;;;;;;;;;;5065297;28;20063;-80
2023/08/05 12:55:58;;;;;;;4.43;1.80;;;;;;;;;;5047158;28;20056;-83
2023/08/05 12:58:24;;;;;;;3.55;1.73;;;;;;;;;;5045315;28;20084;-82
2023/08/05 13:00:50;;;;;;;17.80;2.50;;;;;;;;;;5083232;28;20044;-80
2023/08/05 13:03:16;;;;;;;4.88;1.90;;;;;;;;;;5065072;28;20403;-82
2023/08/05 13:05:42;;;;;;;8.68;2.45;;;;;;;;;;5067067;28;20086;-82
2023/08/05 13:08:08;;;;;;;2.22;2.00;;;;;;;;;;5053001;28;20071;-80
2023/08/05 13:10:35;;;;;;;4.55;1.90;;;;;;;;;;5059393;28;20096;-80
2023/08/05 13:13:02;;;;;;;3.40;2.20;;;;;;;;;;5067704;28;22090;-80
2023/08/05 13:15:28;;;;;;;5.20;2.13;;;;;;;;;;5049989;28;20541;-79
2023/08/05 13:17:54;;;;;;;3.92;2.30;;;;;;;;;;5068311;28;20048;-83
2023/08/05 13:20:20;;;;;;;6.15;3.65;;;;;;;;;;5080062;28;20051;-83
2023/08/05 13:22:46;;;;;;;5.15;4.22;;;;;;;;;;5067941;28;20098;-83
2023/08/05 13:25:12;;;;;;;4.65;4.10;;;;;;;;;;5053395;28;20051;-83
2023/08/05 13:27:38;;;;;;;5.32;4.18;;;;;;;;;;5089054;27;20054;-83
2023/08/05 13:30:04;;;;;;;4.20;3.80;;;;;;;;;;5066657;28;20565;-81
2023/08/05 13:32:30;;;;;;;7.97;5.45;;;;;;;;;;5085520;27;20048;-81
2023/08/05 13:34:56;;;;;;;5.35;4.85;;;;;;;;;;5051185;28;20504;-82
2023/08/05 13:37:22;;;;;;;7.35;5.20;;;;;;;;;;5082913;27;20602;-81
2023/08/05 13:39:49;;;;;;;6.70;4.82;;;;;;;;;;5066551;28;20051;-82
2023/08/05 13:42:15;;;;;;;7.00;5.63;;;;;;;;;;5080308;27;20098;-82
2023/08/05 13:44:42;;;;;;;5.60;5.07;;;;;;;;;;5089596;28;20051;-81
2023/08/05 13:47:08;;;;;;;8.23;4.88;;;;;;;;;;5068117;28;20051;-83
2023/08/05 13:49:34;;;;;;;7.13;5.20;;;;;;;;;;5086555;28;20380;-81
2023/08/05 13:52:00;;;;;;;5.50;4.90;;;;;;;;;;5068015;28;20122;-80
2023/08/05 13:54:26;;;;;;;7.97;5.07;;;;;;;;;;5073025;28;20052;-83
2023/08/05 13:56:52;;;;;;;5.88;3.92;;;;;;;;;;5065034;28;21699;-79
2023/08/05 13:59:18;;;;;;;4.28;3.88;;;;;;;;;;5064640;28;20052;-80
2023/08/05 14:01:45;;;;;;;7.50;3.67;;;;;;;;;;5086185;28;20380;-79
2023/08/05 14:04:12;;;;;;;6.05;3.22;;;;;;;;;;5088354;28;20278;-79
2023/08/05 14:06:38;;;;;;;7.15;4.07;;;;;;;;;;5067612;28;20043;-78
2023/08/05 14:09:07;;;;;;;5.00;3.65;;;;;;;;;;5066174;28;20468;-78
2023/08/05 14:11:34;;;;;;;3.33;3.00;;;;;;;;;;5066393;28;20143;-78
2023/08/05 14:14:00;;;;;;;4.28;3.10;;;;;;;;;;5070482;28;20813;-78
2023/08/05 14:16:26;;;;;;;7.00;3.15;;;;;;;;;;5087418;28;20048;-78
2023/08/05 14:18:52;;;;;;;5.75;3.00;;;;;;;;;;5069163;28;20112;-78
2023/08/05 14:21:18;;;;;;;6.50;3.00;;;;;;;;;;5068114;28;20100;-78
2023/08/05 14:23:45;;;;;;;3.10;2.80;;;;;;;;;;5049585;28;20070;-78
2023/08/05 14:26:11;;;;;;;8.23;3.38;;;;;;;;;;5068136;28;20126;-77
2023/08/05 14:28:37;;;;;;;4.97;2.70;;;;;;;;;;5086397;28;20152;-78
2023/08/05 14:31:06;;;;;;;3.80;3.25;;;;;;;;;;5067373;28;20048;-78
2023/08/05 14:33:32;;;;;;;5.18;3.42;;;;;;;;;;5072807;28;20094;-78
2023/08/05 14:35:58;;;;;;;6.10;2.90;;;;;;;;;;5051878;28;20086;-84
2023/08/05 14:38:24;;;;;;;6.65;3.08;;;;;;;;;;5049107;28;20143;-83